Time;durP1;ratioP1;P1;durP2;ratioP2;P2;SDS_P1;SDS_P2;PMS_P1;PMS_P2;Temp;Humidity;BMP_temperature;BMP_pressure;BME280_temperature;BME280_humidity;BME280_pressure;Samples;Min_cycle;Max_cycle;Signal;HPM_P1;HPM_P2
2022/01/31 00:01:42;;;;;;;22.83;5.67;;;;;;;3.52;67.42;100894.34;5036426;28;20206;-83
2022/01/31 00:04:09;;;;;;;29.47;5.57;;;;;;;3.53;67.08;100891.69;5043720;28;20221;-83
2022/01/31 00:06:35;;;;;;;25.03;5.53;;;;;;;3.52;67.60;100882.06;5037956;28;20581;-83
2022/01/31 00:09:02;;;;;;;21.77;4.40;;;;;;;3.53;67.74;100862.72;5052562;28;20229;-83
2022/01/31 00:11:30;;;;;;;20.60;4.07;;;;;;;3.51;67.72;100851.38;5051352;28;20205;-82
2022/01/31 00:14:02;;;;;;;22.97;4.60;;;;;;;3.51;66.93;100835.56;5051752;28;20209;-83
2022/01/31 00:16:32;;;;;;;23.80;4.13;;;;;;;3.49;67.28;100811.06;5044173;28;20210;-82
2022/01/31 00:18:59;;;;;;;22.93;4.13;;;;;;;3.49;67.63;100811.06;5033475;28;20238;-83
2022/01/31 00:21:26;;;;;;;19.93;4.77;;;;;;;3.48;67.16;100804.94;5039781;28;20705;-82
2022/01/31 00:23:53;;;;;;;17.83;4.17;;;;;;;3.47;67.11;100803.19;5037726;28;20209;-82
2022/01/31 00:26:19;;;;;;;15.57;4.00;;;;;;;3.46;67.70;100796.22;5055979;28;20210;-83
2022/01/31 00:28:47;;;;;;;17.57;4.30;;;;;;;3.45;67.38;100786.59;5058184;28;20229;-82
2022/01/31 00:31:14;;;;;;;18.37;4.50;;;;;;;3.43;67.70;100780.50;5044591;28;20195;-82
2022/01/31 00:33:40;;;;;;;21.13;4.40;;;;;;;3.44;67.71;100774.31;5058176;28;20209;-81
2022/01/31 00:36:07;;;;;;;19.83;4.40;;;;;;;3.44;67.89;100782.22;5043669;28;20240;-82
2022/01/31 00:38:34;;;;;;;16.83;4.80;;;;;;;3.42;67.69;100762.97;5040491;28;20232;-83
2022/01/31 00:41:00;;;;;;;24.70;4.33;;;;;;;3.42;67.52;100746.31;5038737;28;20205;-83
2022/01/31 00:43:27;;;;;;;15.63;4.43;;;;;;;3.41;67.65;100748.09;5047412;28;20328;-83
2022/01/31 00:46:01;;;;;;;20.43;4.50;;;;;;;3.39;67.63;100736.78;5046383;28;20290;-83
2022/01/31 00:48:33;;;;;;;19.23;5.13;;;;;;;3.38;67.50;100729.78;5042241;28;20260;-83
2022/01/31 00:51:00;;;;;;;24.47;4.90;;;;;;;3.37;67.97;100707.00;5038582;28;20217;-82
2022/01/31 00:53:26;;;;;;;23.17;4.40;;;;;;;3.36;67.96;100707.91;5038403;28;20297;-82
2022/01/31 00:55:53;;;;;;;26.80;4.97;;;;;;;3.35;67.86;100690.41;5050902;28;20586;-83
2022/01/31 00:58:19;;;;;;;31.53;5.23;;;;;;;3.34;67.95;100680.78;5042580;28;20229;-82
2022/01/31 01:00:46;;;;;;;24.77;3.90;;;;;;;3.33;68.09;100662.41;5056884;28;20214;-83
2022/01/31 01:03:14;;;;;;;28.13;5.50;;;;;;;3.30;68.44;100647.56;5056002;28;20220;-83
2022/01/31 01:05:40;;;;;;;19.43;4.70;;;;;;;3.30;68.42;100646.72;5038008;28;20210;-83
2022/01/31 01:08:07;;;;;;;20.47;4.40;;;;;;;3.29;68.88;100629.19;5037726;28;20241;-82
2022/01/31 01:10:34;;;;;;;21.73;4.73;;;;;;;3.28;68.17;100638.84;5037306;28;20210;-83
2022/01/31 01:13:01;;;;;;;23.40;5.33;;;;;;;3.27;68.81;100634.50;5042170;28;20648;-83
2022/01/31 01:15:27;;;;;;;18.63;5.00;;;;;;;3.28;68.61;100630.97;5056815;28;20235;-83
2022/01/31 01:17:54;;;;;;;22.17;4.63;;;;;;;3.28;68.25;100627.47;5057145;28;20225;-82
2022/01/31 01:20:23;;;;;;;29.03;4.63;;;;;;;3.27;68.96;100610.81;5046717;28;20218;-83
2022/01/31 01:22:50;;;;;;;26.90;4.40;;;;;;;3.29;68.48;100592.34;5036526;28;20214;-83
2022/01/31 01:25:17;;;;;;;27.13;5.37;;;;;;;3.29;68.30;100563.38;5028896;28;20213;-82
2022/01/31 01:27:46;;;;;;;25.73;5.87;;;;;;;3.27;68.90;100549.41;5037161;28;20230;-84
2022/01/31 01:30:14;;;;;;;20.57;5.13;;;;;;;3.25;68.33;100507.34;5037008;28;20296;-83
2022/01/31 01:32:49;;;;;;;24.13;5.37;;;;;;;3.22;68.22;100543.47;5036187;28;20206;-84
2022/01/31 01:35:16;;;;;;;21.73;4.17;;;;;;;3.21;68.64;100542.63;5047353;28;20770;-83
2022/01/31 01:37:44;;;;;;;19.50;5.20;;;;;;;3.20;68.58;100519.84;5052627;28;20260;-83
2022/01/31 01:40:11;;;;;;;26.43;5.37;;;;;;;3.19;68.84;100507.59;5036353;28;20213;-83
2022/01/31 01:42:37;;;;;;;17.17;4.30;;;;;;;3.16;68.70;100489.28;5037657;28;20216;-83
2022/01/31 01:45:05;;;;;;;26.33;4.80;;;;;;;3.16;68.93;100473.50;5056852;28;20228;-83
2022/01/31 01:47:31;;;;;;;26.67;5.20;;;;;;;3.15;68.88;100463.88;5040506;28;20237;-83
2022/01/31 01:49:58;;;;;;;26.17;4.67;;;;;;;3.14;68.95;100443.75;5047435;28;20557;-83
2022/01/31 01:54:57;;;;;;;25.47;4.47;;;;;;;3.11;69.21;100441.22;4991496;28;20708;-72
2022/01/31 01:57:25;;;;;;;29.67;5.30;;;;;;;3.08;69.40;100436.91;4992250;28;20243;-72
2022/01/31 01:59:55;;;;;;;19.47;4.43;;;;;;;3.07;70.05;100431.72;4991975;28;20211;-73
2022/01/31 02:02:22;;;;;;;22.97;4.47;;;;;;;3.06;70.25;100422.94;4994315;28;20278;-74
2022/01/31 02:04:49;;;;;;;25.90;5.07;;;;;;;3.04;70.02;100402.91;5003205;28;20207;-73
2022/01/31 02:07:15;;;;;;;21.00;4.37;;;;;;;3.02;69.68;100399.47;5034883;22;20247;-68
2022/01/31 02:09:45;;;;;;;20.20;4.60;;;;;;;3.02;69.66;100387.16;5069815;28;20204;-67
2022/01/31 02:12:13;;;;;;;22.13;5.33;;;;;;;3.02;70.37;100383.69;5069083;28;20292;-69
2022/01/31 02:14:40;;;;;;;23.63;4.93;;;;;;;3.00;70.23;100375.84;5065323;28;20212;-68
2022/01/31 02:17:06;;;;;;;25.60;4.30;;;;;;;3.00;70.57;100372.34;5070845;28;20240;-68
2022/01/31 02:19:33;;;;;;;17.97;4.07;;;;;;;3.00;69.77;100373.22;5070046;28;20646;-69
2022/01/31 02:22:01;;;;;;;22.07;4.90;;;;;;;2.99;70.62;100360.97;5065466;28;20216;-69
2022/01/31 02:24:28;;;;;;;23.07;4.17;;;;;;;3.01;70.61;100347.75;5072753;28;20205;-68
2022/01/31 02:26:54;;;;;;;17.07;4.40;;;;;;;3.03;70.00;100340.69;5075330;28;20221;-68
2022/01/31 02:29:21;;;;;;;19.60;4.27;;;;;;;3.03;70.22;100328.38;5070112;28;20209;-68
2022/01/31 02:31:49;;;;;;;20.70;5.10;;;;;;;3.05;69.73;100315.13;5071209;28;20214;-68
2022/01/31 02:34:17;;;;;;;15.40;3.87;;;;;;;3.06;69.98;100301.06;5069769;28;20924;-68
2022/01/31 02:36:43;;;;;;;22.27;4.07;;;;;;;3.04;70.24;100290.63;5071364;28;20604;-68
2022/01/31 02:39:11;;;;;;;19.47;4.03;;;;;;;3.04;69.61;100272.22;5069097;28;20670;-67
2022/01/31 02:41:42;;;;;;;19.13;4.10;;;;;;;3.03;70.16;100264.38;5070099;28;20673;-68
2022/01/31 02:44:14;;;;;;;19.13;4.87;;;;;;;3.05;70.27;100254.63;5071140;28;20220;-68
2022/01/31 02:46:47;;;;;;;25.50;4.90;;;;;;;3.02;69.71;100231.97;5068738;28;20629;-69
2022/01/31 02:49:15;;;;;;;18.10;4.13;;;;;;;3.02;70.33;100220.56;5070817;28;20213;-68
2022/01/31 02:51:46;;;;;;;14.67;3.83;;;;;;;3.01;69.79;100219.72;5065170;28;20201;-68
2022/01/31 02:54:14;;;;;;;16.13;3.53;;;;;;;3.01;70.08;100187.28;5077749;28;20250;-69
2022/01/31 02:56:41;;;;;;;21.07;4.57;;;;;;;3.03;69.67;100186.31;5069422;28;20240;-68
2022/01/31 02:59:08;;;;;;;20.13;4.40;;;;;;;3.02;70.10;100176.72;5064512;28;20209;-68
2022/01/31 03:01:35;;;;;;;17.47;4.80;;;;;;;3.02;69.82;100173.22;5065700;28;20231;-68
2022/01/31 03:04:01;;;;;;;15.43;4.20;;;;;;;3.00;70.47;100165.38;5065212;28;20227;-67
2022/01/31 03:06:28;;;;;;;16.50;4.60;;;;;;;2.99;69.83;100163.69;5063548;28;20201;-69
2022/01/31 03:08:54;;;;;;;15.20;4.43;;;;;;;2.99;69.79;100160.19;5068053;28;20688;-69
2022/01/31 03:11:22;;;;;;;19.07;4.47;;;;;;;3.00;70.10;100154.00;5062282;28;20440;-69
2022/01/31 03:13:49;;;;;;;16.27;5.03;;;;;;;3.01;69.71;100156.59;5061855;28;20201;-69
2022/01/31 03:16:15;;;;;;;17.20;4.50;;;;;;;3.02;70.45;100141.66;5060128;28;20326;-69
2022/01/31 03:18:42;;;;;;;15.03;4.00;;;;;;;3.00;69.83;100120.66;5064330;28;20197;-68
2022/01/31 03:21:08;;;;;;;19.70;4.33;;;;;;;3.03;70.54;100117.91;5061905;28;20247;-68
2022/01/31 03:23:35;;;;;;;17.27;4.53;;;;;;;3.02;70.57;100108.31;5065697;28;20693;-70
2022/01/31 03:26:01;;;;;;;14.63;4.33;;;;;;;3.02;69.98;100104.81;5074397;28;20201;-69
2022/01/31 03:28:30;;;;;;;15.53;3.93;;;;;;;3.02;70.47;100089.03;5069259;28;20256;-68
2022/01/31 03:30:57;;;;;;;12.27;3.57;;;;;;;3.03;70.50;100078.47;5069012;28;20212;-69
2022/01/31 03:33:23;;;;;;;18.40;4.30;;;;;;;3.02;70.09;100070.63;5069781;28;20219;-69
2022/01/31 03:35:50;;;;;;;15.57;4.67;;;;;;;3.02;70.46;100068.84;5069618;28;20225;-69
2022/01/31 03:38:16;;;;;;;20.50;4.83;;;;;;;3.03;70.10;100057.41;5069467;28;20233;-69
2022/01/31 03:40:43;;;;;;;21.20;4.80;;;;;;;3.03;70.23;100052.16;5062995;28;20582;-68
2022/01/31 03:43:09;;;;;;;13.10;4.00;;;;;;;3.03;70.40;100035.50;5076857;28;20211;-69
2022/01/31 03:45:38;;;;;;;15.80;4.23;;;;;;;3.02;70.08;100024.13;5069902;28;20205;-69
2022/01/31 03:48:06;;;;;;;17.00;3.97;;;;;;;3.04;70.44;100013.56;5067847;28;20805;-69
2022/01/31 03:50:32;;;;;;;14.63;4.07;;;;;;;3.05;70.56;100002.06;5069369;28;20274;-67
2022/01/31 03:52:59;;;;;;;14.63;3.93;;;;;;;3.05;70.59;99975.78;5068610;28;20572;-69
2022/01/31 03:55:26;;;;;;;14.70;4.50;;;;;;;3.07;70.04;99976.56;5068085;28;20219;-69
2022/01/31 03:57:54;;;;;;;12.33;4.30;;;;;;;3.05;69.93;99957.34;5069818;28;20681;-69
2022/01/31 04:00:22;;;;;;;19.63;4.50;;;;;;;3.06;70.77;99949.41;5068670;28;20275;-69
2022/01/31 04:02:50;;;;;;;17.00;4.00;;;;;;;3.06;70.43;99932.75;5069467;28;20204;-69
2022/01/31 04:05:16;;;;;;;11.70;3.57;;;;;;;3.07;70.08;99921.31;5069965;28;20204;-69
2022/01/31 04:07:43;;;;;;;12.07;3.43;;;;;;;3.09;70.28;99906.31;5068202;28;20235;-69
2022/01/31 04:10:10;;;;;;;17.17;4.07;;;;;;;3.10;69.96;99902.78;5069792;28;20209;-69
2022/01/31 04:12:37;;;;;;;12.40;3.10;;;;;;;3.11;69.66;99897.44;5066106;28;20212;-69
2022/01/31 04:15:04;;;;;;;13.33;3.80;;;;;;;3.11;69.61;99880.81;5070652;28;20205;-69
2022/01/31 04:17:32;;;;;;;19.30;4.73;;;;;;;3.12;69.79;99880.75;5069157;28;20236;-67
2022/01/31 04:20:00;;;;;;;17.00;4.10;;;;;;;3.13;69.75;99871.06;5069133;28;20201;-69
2022/01/31 04:22:30;;;;;;;16.27;4.23;;;;;;;3.13;70.70;99871.91;5074940;28;20263;-69
2022/01/31 04:25:00;;;;;;;16.43;3.90;;;;;;;3.14;70.49;99852.59;5070259;28;20622;-68
2022/01/31 04:27:28;;;;;;;12.20;4.30;;;;;;;3.15;70.75;99842.91;5067728;28;20229;-68
2022/01/31 04:29:54;;;;;;;17.70;4.97;;;;;;;3.16;70.40;99838.50;5068209;28;20201;-68
2022/01/31 04:32:21;;;;;;;13.07;3.23;;;;;;;3.17;70.41;99832.31;5064899;28;20243;-68
2022/01/31 04:34:47;;;;;;;14.87;3.97;;;;;;;3.13;70.84;99826.34;5069241;28;20690;-69
2022/01/31 04:37:15;;;;;;;14.73;3.83;;;;;;;3.13;70.71;99814.03;5068068;28;20227;-68
2022/01/31 04:39:42;;;;;;;13.30;4.17;;;;;;;3.12;71.67;99814.09;5070169;28;20204;-69
2022/01/31 04:42:09;;;;;;;11.23;3.97;;;;;;;3.11;71.65;99815.03;5067930;28;20747;-68
2022/01/31 04:44:36;;;;;;;14.30;4.00;;;;;;;3.08;72.40;99805.50;5069154;28;20205;-69
2022/01/31 04:47:03;;;;;;;10.93;4.03;;;;;;;3.08;72.63;99799.38;5069149;28;20244;-69
2022/01/31 04:49:29;;;;;;;19.23;4.77;;;;;;;3.05;72.08;99794.25;5067481;28;20209;-68
2022/01/31 04:51:56;;;;;;;17.83;4.40;;;;;;;3.02;73.21;99776.88;5071921;28;20209;-68
2022/01/31 04:54:24;;;;;;;9.20;4.63;;;;;;;2.97;72.77;99770.97;5061876;28;20554;-69
2022/01/31 04:56:50;;;;;;;15.00;3.70;;;;;;;2.94;73.75;99762.34;5078889;28;20240;-68
2022/01/31 04:59:18;;;;;;;13.40;4.30;;;;;;;2.89;73.44;99753.81;5067318;28;20444;-68
2022/01/31 05:01:47;;;;;;;11.43;4.20;;;;;;;2.85;74.17;99745.25;5070189;28;20208;-69
2022/01/31 05:04:14;;;;;;;14.60;4.27;;;;;;;2.81;74.06;99743.66;5072549;28;20213;-68
2022/01/31 05:06:43;;;;;;;19.50;4.77;;;;;;;2.78;75.01;99743.78;5071327;28;20609;-70
2022/01/31 05:09:11;;;;;;;13.83;5.10;;;;;;;2.71;75.07;99735.31;5072634;28;20254;-70
2022/01/31 05:11:39;;;;;;;16.47;3.87;;;;;;;2.64;75.45;99723.41;5071364;28;20240;-70
2022/01/31 05:14:05;;;;;;;13.90;4.80;;;;;;;2.60;75.20;99713.94;5072141;28;20300;-70
2022/01/31 05:16:32;;;;;;;16.63;4.47;;;;;;;2.55;76.15;99700.16;5071173;28;20232;-69
2022/01/31 05:18:58;;;;;;;14.53;3.83;;;;;;;2.48;76.37;99696.13;5072353;28;20201;-70
2022/01/31 05:21:25;;;;;;;12.33;3.63;;;;;;;2.42;76.72;99689.34;5071876;28;20205;-70
2022/01/31 05:23:51;;;;;;;12.47;4.37;;;;;;;2.35;76.84;99681.81;5072048;28;20211;-70
2022/01/31 05:26:19;;;;;;;11.97;4.10;;;;;;;2.30;76.88;99684.66;5072553;28;20217;-71
2022/01/31 05:28:46;;;;;;;12.93;3.97;;;;;;;2.26;77.97;99671.72;5070711;28;20205;-71
2022/01/31 05:31:13;;;;;;;10.23;3.60;;;;;;;2.22;77.54;99663.13;5072050;28;20212;-69
2022/01/31 05:33:39;;;;;;;13.60;4.00;;;;;;;2.17;77.76;99653.72;5071155;28;20209;-69
2022/01/31 05:36:07;;;;;;;14.17;4.43;;;;;;;2.12;77.83;99647.84;5072861;28;20706;-71
2022/01/31 05:38:36;;;;;;;13.57;4.37;;;;;;;2.11;78.13;99640.91;5070754;28;20229;-69
2022/01/31 05:41:06;;;;;;;12.40;4.27;;;;;;;2.07;78.53;99634.91;5059995;28;20244;-73
2022/01/31 05:43:33;;;;;;;12.43;3.93;;;;;;;2.03;79.34;99626.31;5069914;28;20201;-71
2022/01/31 05:46:01;;;;;;;11.13;4.13;;;;;;;2.01;79.07;99624.69;5070431;28;20211;-71
2022/01/31 05:48:27;;;;;;;12.83;4.40;;;;;;;1.99;79.92;99622.13;5071468;28;20229;-70
2022/01/31 05:50:54;;;;;;;10.03;4.20;;;;;;;1.97;80.09;99615.25;5069253;28;20678;-71
2022/01/31 05:53:22;;;;;;;8.13;4.17;;;;;;;1.95;79.81;99617.94;5071622;28;20216;-71
2022/01/31 05:55:48;;;;;;;13.10;3.93;;;;;;;1.94;80.60;99613.63;5070869;28;20561;-71
2022/01/31 05:58:15;;;;;;;8.47;3.80;;;;;;;1.94;80.89;99602.25;5070000;28;20705;-72
2022/01/31 06:00:41;;;;;;;9.57;4.33;;;;;;;1.90;80.81;99588.41;5070426;28;20559;-72
2022/01/31 06:03:09;;;;;;;9.73;3.73;;;;;;;1.86;81.11;99588.59;5070359;28;20209;-71
2022/01/31 06:05:36;;;;;;;6.60;2.63;;;;;;;1.84;80.43;99578.19;5071711;28;20228;-72
2022/01/31 06:08:02;;;;;;;5.60;2.97;;;;;;;1.82;81.43;99576.53;5069799;28;20629;-72
2022/01/31 06:10:29;;;;;;;4.90;2.37;;;;;;;1.80;81.20;99570.50;5070306;28;20666;-72
2022/01/31 06:12:56;;;;;;;4.53;2.47;;;;;;;1.78;81.85;99564.50;5073455;28;20209;-72
2022/01/31 06:15:23;;;;;;;5.40;2.70;;;;;;;1.77;81.90;99563.63;5068976;28;20213;-72
2022/01/31 06:17:50;;;;;;;6.90;2.87;;;;;;;1.75;81.45;99565.47;5067854;28;20255;-73
2022/01/31 06:20:18;;;;;;;5.47;2.37;;;;;;;1.73;81.62;99562.06;5071505;28;20207;-72
2022/01/31 06:22:47;;;;;;;6.87;2.60;;;;;;;1.72;81.98;99555.09;5071997;28;20205;-73
2022/01/31 06:25:13;;;;;;;6.03;2.70;;;;;;;1.70;81.96;99549.06;5070364;28;20205;-73
2022/01/31 06:27:40;;;;;;;6.23;2.87;;;;;;;1.67;82.50;99557.94;5071082;28;20225;-73
2022/01/31 06:30:08;;;;;;;3.87;2.47;;;;;;;1.66;82.66;99540.47;5071296;28;20205;-73
2022/01/31 06:32:35;;;;;;;3.97;1.80;;;;;;;1.63;82.93;99534.50;5070013;28;20685;-73
2022/01/31 06:35:01;;;;;;;2.97;2.00;;;;;;;1.60;83.08;99525.03;5070837;28;20200;-73
2022/01/31 06:37:29;;;;;;;1.97;1.63;;;;;;;1.56;83.01;99522.59;5070810;28;20228;-74
2022/01/31 06:39:55;;;;;;;3.50;1.97;;;;;;;1.54;83.17;99513.94;5070597;28;20208;-73
2022/01/31 06:42:22;;;;;;;2.80;1.53;;;;;;;1.53;84.02;99520.97;5069121;28;20209;-72
2022/01/31 06:44:48;;;;;;;3.37;1.50;;;;;;;1.53;84.06;99522.72;5070657;28;20235;-72
2022/01/31 06:47:15;;;;;;;1.70;1.33;;;;;;;1.53;83.98;99514.84;5070171;28;20224;-72
2022/01/31 06:49:42;;;;;;;2.17;0.90;;;;;;;1.52;83.84;99513.16;5058997;28;20670;-72
2022/01/31 06:52:08;;;;;;;1.37;0.90;;;;;;;1.53;84.24;99509.63;5069752;28;20216;-72
2022/01/31 06:54:36;;;;;;;1.50;0.80;;;;;;;1.53;83.94;99499.97;5068562;28;20201;-72
2022/01/31 06:57:04;;;;;;;0.87;0.83;;;;;;;1.51;84.56;99503.56;5069394;28;20229;-72
2022/01/31 06:59:31;;;;;;;1.57;0.90;;;;;;;1.50;85.04;99496.63;5069534;28;20292;-72
2022/01/31 07:01:57;;;;;;;1.37;0.90;;;;;;;1.48;84.71;99487.97;5069753;28;20209;-72
2022/01/31 07:04:24;;;;;;;1.17;0.90;;;;;;;1.47;85.24;99487.13;5069864;28;20208;-72
2022/01/31 07:06:50;;;;;;;1.57;0.80;;;;;;;1.43;85.94;99476.84;5068750;28;20251;-72
2022/01/31 07:09:17;;;;;;;1.43;0.60;;;;;;;1.44;85.75;99478.53;5070147;28;20207;-72
2022/01/31 07:11:47;;;;;;;1.80;1.00;;;;;;;1.44;85.88;99471.50;5069264;28;20201;-72
2022/01/31 07:14:30;;;;;;;0.70;0.70;;;;;;;1.44;86.02;99468.88;5069857;28;20230;-72
2022/01/31 07:16:57;;;;;;;3.10;1.80;;;;;;;1.44;86.37;99466.25;5065333;28;20231;-72
2022/01/31 07:19:27;;;;;;;1.00;0.80;;;;;;;1.43;86.64;99455.84;5074873;28;20219;-72
2022/01/31 07:21:53;;;;;;;0.83;0.83;;;;;;;1.42;86.89;99462.88;5069489;28;20555;-72
2022/01/31 07:24:24;;;;;;;1.83;0.93;;;;;;;1.42;87.23;99447.13;5069100;28;20288;-72
2022/01/31 07:26:52;;;;;;;1.67;1.20;;;;;;;1.46;87.16;99448.69;5065890;28;20222;-72
2022/01/31 07:29:21;;;;;;;1.40;1.27;;;;;;;1.47;87.50;99449.53;5077447;28;20215;-72
2022/01/31 07:31:48;;;;;;;1.73;1.30;;;;;;;1.49;87.30;99435.41;5069405;28;20221;-72
2022/01/31 07:34:17;;;;;;;1.83;1.50;;;;;;;1.52;87.79;99437.91;5067778;28;20674;-72
2022/01/31 07:36:44;;;;;;;1.63;1.53;;;;;;;1.55;89.08;99437.78;5069577;28;20229;-72
2022/01/31 07:39:11;;;;;;;2.97;1.97;;;;;;;1.54;88.73;99435.22;5068988;28;20705;-72
2022/01/31 07:41:37;;;;;;;5.17;2.63;;;;;;;1.57;88.87;99433.31;5070049;28;20205;-72
2022/01/31 07:44:05;;;;;;;2.57;2.13;;;;;;;1.62;89.42;99417.34;5067954;28;20204;-72
2022/01/31 07:46:32;;;;;;;4.10;2.83;;;;;;;1.66;89.47;99434.66;5069697;28;20666;-72
2022/01/31 07:48:59;;;;;;;3.63;3.10;;;;;;;1.70;88.88;99420.47;5067666;28;20203;-72
2022/01/31 07:51:25;;;;;;;4.93;3.63;;;;;;;1.73;89.35;99431.69;5073347;28;20523;-72
2022/01/31 07:53:52;;;;;;;5.20;3.73;;;;;;;1.80;89.91;99420.88;5071840;28;20670;-72
2022/01/31 07:56:20;;;;;;;5.17;3.90;;;;;;;1.84;89.12;99431.16;5069279;28;20208;-71
2022/01/31 07:58:46;;;;;;;5.77;5.00;;;;;;;1.87;89.69;99423.16;5066598;28;20231;-72
2022/01/31 08:01:14;;;;;;;6.53;4.97;;;;;;;1.90;90.03;99417.75;5067857;28;20957;-72
2022/01/31 08:03:41;;;;;;;7.60;5.10;;;;;;;1.94;89.89;99419.31;5070130;28;21115;-72
2022/01/31 08:06:08;;;;;;;9.67;4.77;;;;;;;1.96;90.08;99421.88;5058196;28;20209;-71
2022/01/31 08:08:36;;;;;;;9.60;5.57;;;;;;;2.01;90.12;99420.72;5063811;22;20237;-73
2022/01/31 08:11:05;;;;;;;7.20;5.50;;;;;;;2.02;89.93;99418.94;5038699;28;20413;-73
2022/01/31 08:13:32;;;;;;;9.37;6.43;;;;;;;2.03;90.97;99418.88;5035222;28;20202;-73
2022/01/31 08:16:09;;;;;;;15.07;7.83;;;;;;;2.06;90.54;99410.84;5035335;28;20293;-73
2022/01/31 08:18:39;;;;;;;9.83;6.67;;;;;;;2.10;90.37;99414.19;5036610;28;20231;-72
2022/01/31 08:21:06;;;;;;;11.63;7.60;;;;;;;2.14;90.69;99404.38;5043412;28;20209;-73
2022/01/31 08:23:34;;;;;;;8.90;7.20;;;;;;;2.18;91.07;99401.50;5037111;28;20206;-73
2022/01/31 08:26:01;;;;;;;9.67;6.77;;;;;;;2.23;90.77;99396.03;5037315;28;20205;-73
2022/01/31 08:28:35;;;;;;;9.57;6.93;;;;;;;2.25;91.06;99402.91;5042812;28;20304;-73
2022/01/31 08:31:10;;;;;;;9.47;7.33;;;;;;;2.30;90.90;99398.28;5037650;28;20698;-73
2022/01/31 08:33:43;;;;;;;9.03;6.77;;;;;;;2.32;91.18;99401.69;5037346;28;20248;-72
2022/01/31 08:36:10;;;;;;;12.00;7.70;;;;;;;2.36;91.62;99407.63;5043970;28;20263;-73
2022/01/31 08:38:39;;;;;;;13.73;8.37;;;;;;;2.39;91.24;99410.09;5040991;28;20277;-73
2022/01/31 08:41:06;;;;;;;11.10;8.00;;;;;;;2.42;91.88;99408.19;5045070;28;20205;-73
2022/01/31 08:43:33;;;;;;;14.77;7.50;;;;;;;2.46;91.34;99406.25;5045115;28;20198;-73
2022/01/31 08:46:00;;;;;;;11.67;7.60;;;;;;;2.50;91.50;99397.31;5039934;28;20217;-72
2022/01/31 08:48:28;;;;;;;12.27;7.73;;;;;;;2.53;91.00;99399.75;5040500;28;20698;-73
2022/01/31 08:50:56;;;;;;;13.10;7.50;;;;;;;2.55;92.06;99390.00;5039160;28;20197;-73
2022/01/31 08:53:23;;;;;;;14.30;7.57;;;;;;;2.58;92.30;99387.25;5043720;28;20208;-73
2022/01/31 08:55:52;;;;;;;15.53;7.47;;;;;;;2.62;91.79;99395.81;5039261;28;20233;-73
2022/01/31 08:58:19;;;;;;;11.57;7.07;;;;;;;2.63;91.85;99390.50;5040820;28;20222;-73
2022/01/31 09:00:49;;;;;;;11.43;7.20;;;;;;;2.65;91.92;99393.91;5044668;28;20473;-74
2022/01/31 09:03:35;;;;;;;10.87;6.73;;;;;;;2.72;92.04;99391.78;5041561;28;20264;-74
2022/01/31 09:06:04;;;;;;;13.93;6.57;;;;;;;2.73;92.41;99386.44;5041162;28;20206;-74
2022/01/31 09:08:31;;;;;;;11.10;6.73;;;;;;;2.78;91.72;99392.34;5045451;28;20241;-73
2022/01/31 09:10:57;;;;;;;13.43;6.63;;;;;;;2.83;92.35;99396.50;5042973;28;20212;-73
2022/01/31 09:13:24;;;;;;;10.60;6.60;;;;;;;2.87;92.13;99396.25;5043609;28;20217;-73
2022/01/31 09:15:51;;;;;;;11.00;6.83;;;;;;;2.90;92.25;99403.97;5042815;28;20205;-73
2022/01/31 09:18:18;;;;;;;12.13;7.07;;;;;;;2.95;91.77;99409.88;5041158;28;20229;-73
2022/01/31 09:20:45;;;;;;;12.57;6.70;;;;;;;3.00;92.39;99401.75;5041587;28;20213;-72
2022/01/31 09:23:13;;;;;;;13.13;7.60;;;;;;;3.02;91.77;99400.72;5040095;28;20587;-72
2022/01/31 09:25:44;;;;;;;13.33;7.53;;;;;;;3.04;92.29;99398.88;5043993;28;20206;-74
2022/01/31 09:28:11;;;;;;;16.30;6.97;;;;;;;3.08;92.38;99402.16;5041568;28;20244;-72
2022/01/31 09:30:38;;;;;;;12.33;7.37;;;;;;;3.12;92.17;99403.72;5041398;28;20586;-74
2022/01/31 09:33:04;;;;;;;8.40;6.13;;;;;;;3.16;92.01;99394.75;5042663;28;20206;-74
2022/01/31 09:35:31;;;;;;;14.13;7.00;;;;;;;3.19;92.31;99391.94;5047198;28;20209;-74
2022/01/31 09:37:58;;;;;;;11.60;6.93;;;;;;;3.24;92.44;99396.94;5049997;28;20264;-74
2022/01/31 09:40:26;;;;;;;14.07;7.30;;;;;;;3.30;92.48;99404.53;5038599;28;20202;-74
2022/01/31 09:43:04;;;;;;;11.07;6.50;;;;;;;3.34;91.75;99400.81;5041768;28;20197;-71
2022/01/31 09:45:49;;;;;;;12.93;6.73;;;;;;;3.42;92.08;99409.13;5041302;28;20209;-71
2022/01/31 09:48:33;;;;;;;8.60;6.03;;;;;;;3.47;92.08;99410.59;5041919;28;20253;-72
2022/01/31 09:51:01;;;;;;;12.67;6.20;;;;;;;3.55;91.97;99412.81;5042801;28;20872;-72
2022/01/31 09:53:30;;;;;;;14.00;6.17;;;;;;;3.61;91.73;99403.72;5039249;28;20218;-72
2022/01/31 09:55:58;;;;;;;10.20;5.43;;;;;;;3.65;92.07;99395.56;5044947;28;20589;-71
2022/01/31 09:58:29;;;;;;;7.53;5.20;;;;;;;3.71;92.54;99402.28;5039931;28;20230;-72
2022/01/31 10:01:07;;;;;;;7.60;5.13;;;;;;;3.73;91.90;99408.31;5046170;28;20601;-71
2022/01/31 10:03:35;;;;;;;10.27;4.90;;;;;;;3.78;91.95;99411.53;5045931;28;20209;-71
2022/01/31 10:06:01;;;;;;;9.10;5.47;;;;;;;3.83;92.26;99414.75;5046212;28;20671;-72
2022/01/31 10:08:30;;;;;;;7.80;4.50;;;;;;;3.90;92.31;99416.13;5043745;28;20240;-72
2022/01/31 10:11:01;;;;;;;7.23;3.33;;;;;;;3.96;91.88;99421.03;5043251;28;20209;-71
2022/01/31 10:16:32;;;;;;;7.90;3.70;;;;;;;4.09;91.40;99423.84;5040772;28;20288;-72
2022/01/31 10:19:00;;;;;;;5.23;2.60;;;;;;;4.11;91.70;99430.75;5038162;28;20226;-72
2022/01/31 10:21:27;;;;;;;3.00;2.33;;;;;;;4.15;91.06;99416.44;5043608;28;20202;-73
2022/01/31 10:23:53;;;;;;;7.13;3.13;;;;;;;4.18;91.62;99436.50;5040494;28;20296;-72
2022/01/31 10:26:32;;;;;;;3.93;2.80;;;;;;;4.21;90.92;99438.13;5049532;28;20217;-72
2022/01/31 10:29:10;;;;;;;5.43;2.10;;;;;;;4.24;90.65;99430.03;5048750;28;20217;-71
2022/01/31 10:31:37;;;;;;;3.50;2.20;;;;;;;4.27;90.50;99435.16;5044872;28;20309;-73
2022/01/31 10:34:14;;;;;;;5.83;2.20;;;;;;;4.32;90.15;99446.25;5043943;28;20252;-72
2022/01/31 10:36:42;;;;;;;3.20;1.63;;;;;;;4.35;90.02;99427.63;5045111;28;20675;-72
2022/01/31 10:39:13;;;;;;;3.50;1.60;;;;;;;4.37;90.05;99426.63;5041087;28;20232;-72
2022/01/31 10:44:59;;;;;;;7.37;1.40;;;;;;;4.39;89.64;99426.53;5044279;28;20245;-72
2022/01/31 10:50:50;;;;;;;0.93;0.93;;;;;;;4.45;88.84;99439.38;5042355;28;20213;-72
2022/01/31 10:53:17;;;;;;;2.00;0.90;;;;;;;4.46;88.71;99446.34;5045040;28;20583;-72
2022/01/31 10:55:53;;;;;;;0.87;0.77;;;;;;;4.46;88.87;99438.44;5037649;28;20205;-73
2022/01/31 10:58:22;;;;;;;1.03;0.70;;;;;;;4.45;88.62;99440.22;5037602;28;20233;-72
2022/01/31 11:00:48;;;;;;;1.40;0.60;;;;;;;4.46;88.68;99430.53;5041909;28;20225;-71
2022/01/31 11:03:32;;;;;;;0.87;0.80;;;;;;;4.48;88.35;99436.53;5047721;28;20593;-71
2022/01/31 11:06:01;;;;;;;2.30;0.97;;;;;;;4.51;88.40;99453.03;5042595;28;20217;-72
2022/01/31 11:08:28;;;;;;;2.67;0.80;;;;;;;4.51;88.47;99446.91;5044199;28;20324;-72
2022/01/31 11:10:58;;;;;;;1.07;0.70;;;;;;;4.53;88.63;99455.56;5042025;28;20206;-72
2022/01/31 11:13:26;;;;;;;1.27;0.90;;;;;;;4.54;88.56;99468.69;5041641;28;20209;-73
2022/01/31 11:15:54;;;;;;;1.57;1.00;;;;;;;4.56;88.31;99468.59;5043120;28;20208;-72
2022/01/31 11:18:22;;;;;;;1.23;0.80;;;;;;;4.58;88.33;99468.50;5045653;28;20768;-71
2022/01/31 11:20:53;;;;;;;1.63;0.60;;;;;;;4.61;88.41;99478.88;5043766;28;20589;-72
2022/01/31 11:23:22;;;;;;;1.60;0.70;;;;;;;4.63;88.77;99487.56;5044674;28;20214;-72
2022/01/31 11:25:56;;;;;;;1.57;0.80;;;;;;;4.67;88.63;99491.69;5041151;28;20209;-73
2022/01/31 11:28:23;;;;;;;0.70;0.70;;;;;;;4.68;88.46;99488.13;5047978;28;20221;-72
2022/01/31 11:30:52;;;;;;;0.80;0.70;;;;;;;4.69;87.91;99495.09;5038625;28;20203;-72
2022/01/31 11:33:19;;;;;;;0.70;0.70;;;;;;;4.68;88.46;99483.69;5042723;28;20674;-72
2022/01/31 11:35:48;;;;;;;1.00;0.60;;;;;;;4.71;88.25;99472.13;5044995;28;20293;-72
2022/01/31 11:38:15;;;;;;;1.50;1.03;;;;;;;4.73;87.93;99492.19;5038842;28;20221;-73
2022/01/31 11:40:42;;;;;;;1.30;0.90;;;;;;;4.76;88.00;99488.53;5045789;28;20212;-72
2022/01/31 11:43:09;;;;;;;0.87;0.63;;;;;;;4.78;87.98;99492.78;5043540;28;20212;-72
2022/01/31 11:45:39;;;;;;;1.47;0.80;;;;;;;4.80;88.06;99496.19;5041832;28;20583;-72
2022/01/31 11:48:11;;;;;;;0.90;0.70;;;;;;;4.81;88.00;99499.69;5039191;28;20228;-72
2022/01/31 11:50:43;;;;;;;0.73;0.73;;;;;;;4.83;87.65;99503.94;5041191;28;20213;-72